sensor_id;sensor_type;location;lat;lon;timestamp;P1;durP1;ratioP1;P2;durP2;ratioP2
1346;SDS011;667;48.796;9.480;2023-05-07T00:01:35;4.23;;;2.60;;
1346;SDS011;667;48.796;9.480;2023-05-07T00:04:00;3.00;;;2.50;;
1346;SDS011;667;48.796;9.480;2023-05-07T00:06:27;4.67;;;2.70;;
1346;SDS011;667;48.796;9.480;2023-05-07T00:08:53;2.67;;;2.47;;
1346;SDS011;667;48.796;9.480;2023-05-07T00:11:19;3.10;;;2.30;;
1346;SDS011;667;48.796;9.480;2023-05-07T00:13:45;3.87;;;3.00;;
1346;SDS011;667;48.796;9.480;2023-05-07T00:16:11;3.07;;;2.87;;
1346;SDS011;667;48.796;9.480;2023-05-07T00:18:36;3.47;;;2.53;;
1346;SDS011;667;48.796;9.480;2023-05-07T00:21:02;3.83;;;3.00;;
1346;SDS011;667;48.796;9.480;2023-05-07T00:23:27;3.50;;;2.60;;
1346;SDS011;667;48.796;9.480;2023-05-07T00:25:53;3.13;;;2.40;;
1346;SDS011;667;48.796;9.480;2023-05-07T00:28:18;4.00;;;2.83;;
1346;SDS011;667;48.796;9.480;2023-05-07T00:30:44;3.03;;;2.80;;
1346;SDS011;667;48.796;9.480;2023-05-07T00:33:10;2.80;;;2.57;;
1346;SDS011;667;48.796;9.480;2023-05-07T00:35:35;9.27;;;4.83;;
1346;SDS011;667;48.796;9.480;2023-05-07T00:38:01;3.00;;;2.80;;
1346;SDS011;667;48.796;9.480;2023-05-07T00:40:26;3.73;;;2.73;;
1346;SDS011;667;48.796;9.480;2023-05-07T00:42:52;3.37;;;3.07;;
1346;SDS011;667;48.796;9.480;2023-05-07T00:45:23;3.97;;;2.93;;
1346;SDS011;667;48.796;9.480;2023-05-07T00:47:53;8.83;;;3.73;;
1346;SDS011;667;48.796;9.480;2023-05-07T00:50:19;4.17;;;3.87;;
1346;SDS011;667;48.796;9.480;2023-05-07T00:52:45;3.83;;;2.80;;
1346;SDS011;667;48.796;9.480;2023-05-07T00:55:11;3.60;;;3.30;;
1346;SDS011;667;48.796;9.480;2023-05-07T00:57:39;3.90;;;3.40;;
1346;SDS011;667;48.796;9.480;2023-05-07T01:00:06;3.07;;;2.87;;
1346;SDS011;667;48.796;9.480;2023-05-07T01:02:37;3.60;;;3.30;;
1346;SDS011;667;48.796;9.480;2023-05-07T01:05:04;3.63;;;3.10;;
1346;SDS011;667;48.796;9.480;2023-05-07T01:07:32;4.90;;;3.27;;
1346;SDS011;667;48.796;9.480;2023-05-07T01:09:59;4.57;;;3.23;;
1346;SDS011;667;48.796;9.480;2023-05-07T01:12:26;6.20;;;3.50;;
1346;SDS011;667;48.796;9.480;2023-05-07T01:14:53;3.97;;;3.27;;
1346;SDS011;667;48.796;9.480;2023-05-07T01:17:19;3.17;;;2.90;;
1346;SDS011;667;48.796;9.480;2023-05-07T01:19:45;3.70;;;3.40;;
1346;SDS011;667;48.796;9.480;2023-05-07T01:22:11;5.00;;;3.57;;
1346;SDS011;667;48.796;9.480;2023-05-07T01:24:37;4.20;;;3.30;;
1346;SDS011;667;48.796;9.480;2023-05-07T01:27:03;3.57;;;3.30;;
1346;SDS011;667;48.796;9.480;2023-05-07T01:29:29;3.60;;;3.30;;
1346;SDS011;667;48.796;9.480;2023-05-07T01:31:58;3.70;;;3.40;;
1346;SDS011;667;48.796;9.480;2023-05-07T01:34:25;7.03;;;3.13;;
1346;SDS011;667;48.796;9.480;2023-05-07T01:36:54;3.43;;;3.13;;
1346;SDS011;667;48.796;9.480;2023-05-07T01:39:24;5.13;;;3.10;;
1346;SDS011;667;48.796;9.480;2023-05-07T01:41:50;4.35;;;2.78;;
1346;SDS011;667;48.796;9.480;2023-05-07T01:44:16;5.33;;;3.17;;
1346;SDS011;667;48.796;9.480;2023-05-07T01:46:43;3.37;;;3.10;;
1346;SDS011;667;48.796;9.480;2023-05-07T01:49:09;4.53;;;3.33;;
1346;SDS011;667;48.796;9.480;2023-05-07T01:51:35;3.70;;;3.00;;
1346;SDS011;667;48.796;9.480;2023-05-07T01:54:01;4.10;;;3.10;;
1346;SDS011;667;48.796;9.480;2023-05-07T01:56:27;3.27;;;2.77;;
1346;SDS011;667;48.796;9.480;2023-05-07T01:58:52;7.00;;;3.23;;
1346;SDS011;667;48.796;9.480;2023-05-07T02:01:18;3.63;;;3.33;;
1346;SDS011;667;48.796;9.480;2023-05-07T02:03:44;3.40;;;3.10;;
1346;SDS011;667;48.796;9.480;2023-05-07T02:06:09;5.50;;;3.33;;
1346;SDS011;667;48.796;9.480;2023-05-07T02:08:35;3.83;;;3.17;;
1346;SDS011;667;48.796;9.480;2023-05-07T02:11:00;3.10;;;2.70;;
1346;SDS011;667;48.796;9.480;2023-05-07T02:13:28;3.30;;;2.50;;
1346;SDS011;667;48.796;9.480;2023-05-07T02:15:58;5.30;;;2.80;;
1346;SDS011;667;48.796;9.480;2023-05-07T02:18:24;2.93;;;2.63;;
1346;SDS011;667;48.796;9.480;2023-05-07T02:20:49;3.40;;;3.10;;
1346;SDS011;667;48.796;9.480;2023-05-07T02:23:15;3.27;;;2.87;;
1346;SDS011;667;48.796;9.480;2023-05-07T02:25:41;2.70;;;2.50;;
1346;SDS011;667;48.796;9.480;2023-05-07T02:28:06;3.00;;;2.80;;
1346;SDS011;667;48.796;9.480;2023-05-07T02:30:32;3.93;;;3.63;;
1346;SDS011;667;48.796;9.480;2023-05-07T02:32:58;3.07;;;2.87;;
1346;SDS011;667;48.796;9.480;2023-05-07T02:35:24;5.77;;;2.60;;
1346;SDS011;667;48.796;9.480;2023-05-07T02:37:50;2.90;;;2.70;;
1346;SDS011;667;48.796;9.480;2023-05-07T02:40:15;3.03;;;2.77;;
1346;SDS011;667;48.796;9.480;2023-05-07T02:42:41;3.47;;;3.17;;
1346;SDS011;667;48.796;9.480;2023-05-07T02:45:07;5.43;;;3.13;;
1346;SDS011;667;48.796;9.480;2023-05-07T02:47:33;2.60;;;2.40;;
1346;SDS011;667;48.796;9.480;2023-05-07T02:49:58;3.00;;;2.67;;
1346;SDS011;667;48.796;9.480;2023-05-07T02:52:24;3.00;;;2.80;;
1346;SDS011;667;48.796;9.480;2023-05-07T02:54:50;6.60;;;3.40;;
1346;SDS011;667;48.796;9.480;2023-05-07T02:57:15;2.77;;;2.23;;
1346;SDS011;667;48.796;9.480;2023-05-07T02:59:41;2.80;;;2.60;;
1346;SDS011;667;48.796;9.480;2023-05-07T03:02:07;3.30;;;2.63;;
1346;SDS011;667;48.796;9.480;2023-05-07T03:04:33;3.20;;;2.83;;
1346;SDS011;667;48.796;9.480;2023-05-07T03:06:58;2.83;;;2.63;;
1346;SDS011;667;48.796;9.480;2023-05-07T03:09:24;4.47;;;3.00;;
1346;SDS011;667;48.796;9.480;2023-05-07T03:11:49;3.20;;;2.90;;
1346;SDS011;667;48.796;9.480;2023-05-07T03:14:15;5.07;;;2.80;;
1346;SDS011;667;48.796;9.480;2023-05-07T03:16:41;3.97;;;3.57;;
1346;SDS011;667;48.796;9.480;2023-05-07T03:19:06;3.27;;;2.97;;
1346;SDS011;667;48.796;9.480;2023-05-07T03:21:32;2.80;;;2.50;;
1346;SDS011;667;48.796;9.480;2023-05-07T03:23:58;3.25;;;3.05;;
1346;SDS011;667;48.796;9.480;2023-05-07T03:26:25;3.35;;;3.10;;
1346;SDS011;667;48.796;9.480;2023-05-07T03:28:50;2.70;;;2.50;;
1346;SDS011;667;48.796;9.480;2023-05-07T03:31:16;2.93;;;2.67;;
1346;SDS011;667;48.796;9.480;2023-05-07T03:33:52;3.40;;;3.13;;
1346;SDS011;667;48.796;9.480;2023-05-07T03:36:18;3.13;;;2.80;;
1346;SDS011;667;48.796;9.480;2023-05-07T03:38:45;3.90;;;2.60;;
1346;SDS011;667;48.796;9.480;2023-05-07T03:41:11;3.13;;;2.93;;
1346;SDS011;667;48.796;9.480;2023-05-07T03:43:37;3.33;;;3.03;;
1346;SDS011;667;48.796;9.480;2023-05-07T03:46:02;5.10;;;2.60;;
1346;SDS011;667;48.796;9.480;2023-05-07T03:48:28;2.90;;;2.70;;
1346;SDS011;667;48.796;9.480;2023-05-07T03:50:53;3.23;;;3.00;;
1346;SDS011;667;48.796;9.480;2023-05-07T03:53:19;2.50;;;2.40;;
1346;SDS011;667;48.796;9.480;2023-05-07T03:55:45;2.83;;;2.63;;
1346;SDS011;667;48.796;9.480;2023-05-07T03:58:10;5.93;;;2.70;;
1346;SDS011;667;48.796;9.480;2023-05-07T04:00:36;2.67;;;2.47;;
1346;SDS011;667;48.796;9.480;2023-05-07T04:03:04;3.55;;;2.97;;
1346;SDS011;667;48.796;9.480;2023-05-07T04:05:31;2.78;;;2.53;;
1346;SDS011;667;48.796;9.480;2023-05-07T04:07:59;3.47;;;3.17;;
1346;SDS011;667;48.796;9.480;2023-05-07T04:10:26;2.85;;;2.65;;
1346;SDS011;667;48.796;9.480;2023-05-07T04:12:53;2.55;;;2.40;;
1346;SDS011;667;48.796;9.480;2023-05-07T04:15:18;2.73;;;2.53;;
1346;SDS011;667;48.796;9.480;2023-05-07T04:17:44;3.03;;;2.83;;
1346;SDS011;667;48.796;9.480;2023-05-07T04:20:12;2.67;;;2.47;;
1346;SDS011;667;48.796;9.480;2023-05-07T04:22:39;3.90;;;2.80;;
1346;SDS011;667;48.796;9.480;2023-05-07T04:25:05;3.33;;;2.40;;
1346;SDS011;667;48.796;9.480;2023-05-07T04:27:32;3.22;;;2.92;;
1346;SDS011;667;48.796;9.480;2023-05-07T04:29:58;4.30;;;2.80;;
1346;SDS011;667;48.796;9.480;2023-05-07T04:32:25;2.58;;;2.38;;
1346;SDS011;667;48.796;9.480;2023-05-07T04:34:51;4.15;;;2.60;;
1346;SDS011;667;48.796;9.480;2023-05-07T04:37:17;3.40;;;2.80;;
1346;SDS011;667;48.796;9.480;2023-05-07T04:39:43;2.77;;;2.57;;
1346;SDS011;667;48.796;9.480;2023-05-07T04:42:08;2.60;;;2.33;;
1346;SDS011;667;48.796;9.480;2023-05-07T04:44:35;3.10;;;2.90;;
1346;SDS011;667;48.796;9.480;2023-05-07T04:47:02;3.03;;;2.72;;
1346;SDS011;667;48.796;9.480;2023-05-07T04:49:27;3.40;;;3.10;;
1346;SDS011;667;48.796;9.480;2023-05-07T04:51:53;3.30;;;3.00;;
1346;SDS011;667;48.796;9.480;2023-05-07T04:54:18;6.80;;;3.07;;
1346;SDS011;667;48.796;9.480;2023-05-07T04:56:44;2.67;;;2.47;;
1346;SDS011;667;48.796;9.480;2023-05-07T04:59:10;2.77;;;2.47;;
1346;SDS011;667;48.796;9.480;2023-05-07T05:01:35;3.40;;;3.10;;
1346;SDS011;667;48.796;9.480;2023-05-07T05:04:01;2.83;;;2.63;;
1346;SDS011;667;48.796;9.480;2023-05-07T05:06:26;2.97;;;2.73;;
1346;SDS011;667;48.796;9.480;2023-05-07T05:08:52;3.73;;;3.40;;
1346;SDS011;667;48.796;9.480;2023-05-07T05:11:18;3.73;;;2.93;;
1346;SDS011;667;48.796;9.480;2023-05-07T05:13:43;3.37;;;3.17;;
1346;SDS011;667;48.796;9.480;2023-05-07T05:16:09;2.80;;;2.60;;
1346;SDS011;667;48.796;9.480;2023-05-07T05:18:34;3.27;;;2.97;;
1346;SDS011;667;48.796;9.480;2023-05-07T05:21:00;3.17;;;2.87;;
1346;SDS011;667;48.796;9.480;2023-05-07T05:23:26;4.40;;;2.90;;
1346;SDS011;667;48.796;9.480;2023-05-07T05:25:55;3.97;;;2.67;;
1346;SDS011;667;48.796;9.480;2023-05-07T05:28:22;4.40;;;2.65;;
1346;SDS011;667;48.796;9.480;2023-05-07T05:30:48;4.03;;;3.70;;
1346;SDS011;667;48.796;9.480;2023-05-07T05:33:14;3.00;;;2.80;;
1346;SDS011;667;48.796;9.480;2023-05-07T05:35:40;2.70;;;2.50;;
1346;SDS011;667;48.796;9.480;2023-05-07T05:38:05;3.30;;;3.10;;
1346;SDS011;667;48.796;9.480;2023-05-07T05:40:31;3.60;;;3.30;;
1346;SDS011;667;48.796;9.480;2023-05-07T05:42:57;3.47;;;3.20;;
1346;SDS011;667;48.796;9.480;2023-05-07T05:45:22;3.50;;;3.20;;
1346;SDS011;667;48.796;9.480;2023-05-07T05:47:48;6.93;;;4.87;;
1346;SDS011;667;48.796;9.480;2023-05-07T05:50:13;6.27;;;5.67;;
1346;SDS011;667;48.796;9.480;2023-05-07T05:52:39;6.10;;;5.53;;
1346;SDS011;667;48.796;9.480;2023-05-07T05:55:05;5.37;;;4.97;;
1346;SDS011;667;48.796;9.480;2023-05-07T05:57:31;5.88;;;5.38;;
1346;SDS011;667;48.796;9.480;2023-05-07T05:59:57;5.30;;;4.80;;
1346;SDS011;667;48.796;9.480;2023-05-07T06:02:23;6.40;;;5.90;;
1346;SDS011;667;48.796;9.480;2023-05-07T06:04:48;6.10;;;5.17;;
1346;SDS011;667;48.796;9.480;2023-05-07T06:07:14;5.63;;;4.97;;
1346;SDS011;667;48.796;9.480;2023-05-07T06:09:39;5.20;;;4.80;;
1346;SDS011;667;48.796;9.480;2023-05-07T06:12:05;4.80;;;4.30;;
1346;SDS011;667;48.796;9.480;2023-05-07T06:14:31;5.40;;;5.00;;
1346;SDS011;667;48.796;9.480;2023-05-07T06:16:56;4.93;;;4.40;;
1346;SDS011;667;48.796;9.480;2023-05-07T06:19:22;5.07;;;4.67;;
1346;SDS011;667;48.796;9.480;2023-05-07T06:21:49;5.20;;;4.73;;
1346;SDS011;667;48.796;9.480;2023-05-07T06:24:15;5.20;;;4.50;;
1346;SDS011;667;48.796;9.480;2023-05-07T06:26:40;4.83;;;4.50;;
1346;SDS011;667;48.796;9.480;2023-05-07T06:29:06;5.40;;;4.90;;
1346;SDS011;667;48.796;9.480;2023-05-07T06:31:32;4.87;;;4.40;;
1346;SDS011;667;48.796;9.480;2023-05-07T06:33:57;3.97;;;3.63;;
1346;SDS011;667;48.796;9.480;2023-05-07T06:36:24;5.67;;;4.60;;
1346;SDS011;667;48.796;9.480;2023-05-07T06:38:49;4.50;;;4.10;;
1346;SDS011;667;48.796;9.480;2023-05-07T06:41:15;7.47;;;4.53;;
1346;SDS011;667;48.796;9.480;2023-05-07T06:43:40;6.43;;;4.57;;
1346;SDS011;667;48.796;9.480;2023-05-07T06:46:06;4.53;;;4.23;;
1346;SDS011;667;48.796;9.480;2023-05-07T06:48:32;5.03;;;4.10;;
1346;SDS011;667;48.796;9.480;2023-05-07T06:50:57;5.20;;;4.80;;
1346;SDS011;667;48.796;9.480;2023-05-07T06:53:23;5.53;;;4.90;;
1346;SDS011;667;48.796;9.480;2023-05-07T06:55:49;5.10;;;4.50;;
1346;SDS011;667;48.796;9.480;2023-05-07T06:58:15;5.90;;;5.43;;
1346;SDS011;667;48.796;9.480;2023-05-07T07:00:40;5.90;;;5.37;;
1346;SDS011;667;48.796;9.480;2023-05-07T07:03:06;7.63;;;7.03;;
1346;SDS011;667;48.796;9.480;2023-05-07T07:05:32;7.07;;;6.57;;
1346;SDS011;667;48.796;9.480;2023-05-07T07:07:57;8.37;;;7.67;;
1346;SDS011;667;48.796;9.480;2023-05-07T07:10:23;7.43;;;6.30;;
1346;SDS011;667;48.796;9.480;2023-05-07T07:12:49;6.03;;;5.43;;
1346;SDS011;667;48.796;9.480;2023-05-07T07:15:15;5.60;;;5.20;;
1346;SDS011;667;48.796;9.480;2023-05-07T07:17:41;6.23;;;5.77;;
1346;SDS011;667;48.796;9.480;2023-05-07T07:20:07;5.67;;;5.17;;
1346;SDS011;667;48.796;9.480;2023-05-07T07:22:32;6.17;;;5.57;;
1346;SDS011;667;48.796;9.480;2023-05-07T07:24:58;5.90;;;5.40;;
1346;SDS011;667;48.796;9.480;2023-05-07T07:27:24;5.93;;;5.43;;
1346;SDS011;667;48.796;9.480;2023-05-07T07:29:50;6.47;;;5.40;;
1346;SDS011;667;48.796;9.480;2023-05-07T07:32:15;5.53;;;5.13;;
1346;SDS011;667;48.796;9.480;2023-05-07T07:34:41;6.00;;;5.50;;
1346;SDS011;667;48.796;9.480;2023-05-07T07:37:06;5.10;;;4.57;;
1346;SDS011;667;48.796;9.480;2023-05-07T07:39:32;4.30;;;4.00;;
1346;SDS011;667;48.796;9.480;2023-05-07T07:41:58;4.50;;;4.13;;
1346;SDS011;667;48.796;9.480;2023-05-07T07:44:24;4.27;;;3.87;;
1346;SDS011;667;48.796;9.480;2023-05-07T07:46:50;3.47;;;3.17;;
1346;SDS011;667;48.796;9.480;2023-05-07T07:49:16;4.80;;;3.50;;
1346;SDS011;667;48.796;9.480;2023-05-07T07:51:42;2.83;;;2.60;;
1346;SDS011;667;48.796;9.480;2023-05-07T07:54:07;2.77;;;2.57;;
1346;SDS011;667;48.796;9.480;2023-05-07T07:56:33;3.00;;;2.80;;
1346;SDS011;667;48.796;9.480;2023-05-07T07:58:59;3.00;;;2.57;;
1346;SDS011;667;48.796;9.480;2023-05-07T08:01:25;3.20;;;3.00;;
1346;SDS011;667;48.796;9.480;2023-05-07T08:03:51;3.60;;;3.07;;
1346;SDS011;667;48.796;9.480;2023-05-07T08:06:16;3.73;;;3.30;;
1346;SDS011;667;48.796;9.480;2023-05-07T08:08:42;2.70;;;2.50;;
1346;SDS011;667;48.796;9.480;2023-05-07T08:11:08;4.10;;;3.70;;
1346;SDS011;667;48.796;9.480;2023-05-07T08:13:34;4.63;;;4.33;;
1346;SDS011;667;48.796;9.480;2023-05-07T08:15:59;4.13;;;3.40;;
1346;SDS011;667;48.796;9.480;2023-05-07T08:18:25;4.17;;;3.30;;
1346;SDS011;667;48.796;9.480;2023-05-07T08:20:53;2.77;;;2.57;;
1346;SDS011;667;48.796;9.480;2023-05-07T08:23:18;3.13;;;2.93;;
1346;SDS011;667;48.796;9.480;2023-05-07T08:25:44;3.07;;;2.77;;
1346;SDS011;667;48.796;9.480;2023-05-07T08:28:10;4.00;;;2.90;;
1346;SDS011;667;48.796;9.480;2023-05-07T08:30:35;4.10;;;3.63;;
1346;SDS011;667;48.796;9.480;2023-05-07T08:33:01;3.63;;;3.33;;
1346;SDS011;667;48.796;9.480;2023-05-07T08:35:26;4.70;;;4.33;;
1346;SDS011;667;48.796;9.480;2023-05-07T08:37:52;4.80;;;4.40;;
1346;SDS011;667;48.796;9.480;2023-05-07T08:40:19;3.67;;;3.37;;
1346;SDS011;667;48.796;9.480;2023-05-07T08:42:49;5.57;;;3.97;;
1346;SDS011;667;48.796;9.480;2023-05-07T08:45:21;3.70;;;3.40;;
1346;SDS011;667;48.796;9.480;2023-05-07T08:47:49;3.63;;;3.33;;
1346;SDS011;667;48.796;9.480;2023-05-07T08:50:20;3.70;;;3.33;;
1346;SDS011;667;48.796;9.480;2023-05-07T08:52:46;4.00;;;3.70;;
1346;SDS011;667;48.796;9.480;2023-05-07T08:55:12;2.90;;;2.70;;
1346;SDS011;667;48.796;9.480;2023-05-07T08:57:38;3.80;;;3.33;;
1346;SDS011;667;48.796;9.480;2023-05-07T09:00:04;3.67;;;3.30;;
1346;SDS011;667;48.796;9.480;2023-05-07T09:02:32;3.73;;;3.43;;
1346;SDS011;667;48.796;9.480;2023-05-07T09:04:58;3.50;;;3.20;;
1346;SDS011;667;48.796;9.480;2023-05-07T09:07:23;3.40;;;3.10;;
1346;SDS011;667;48.796;9.480;2023-05-07T09:09:50;5.80;;;3.23;;
1346;SDS011;667;48.796;9.480;2023-05-07T09:12:17;3.23;;;2.93;;
1346;SDS011;667;48.796;9.480;2023-05-07T09:14:43;3.10;;;2.90;;
1346;SDS011;667;48.796;9.480;2023-05-07T09:17:10;3.43;;;3.20;;
1346;SDS011;667;48.796;9.480;2023-05-07T09:19:36;3.30;;;3.00;;
1346;SDS011;667;48.796;9.480;2023-05-07T09:22:03;3.43;;;2.77;;
1346;SDS011;667;48.796;9.480;2023-05-07T09:24:31;3.70;;;3.40;;
1346;SDS011;667;48.796;9.480;2023-05-07T09:27:03;3.60;;;3.30;;
1346;SDS011;667;48.796;9.480;2023-05-07T09:29:29;3.27;;;2.97;;
1346;SDS011;667;48.796;9.480;2023-05-07T09:32:00;3.70;;;3.40;;
1346;SDS011;667;48.796;9.480;2023-05-07T09:34:27;3.37;;;3.07;;
1346;SDS011;667;48.796;9.480;2023-05-07T09:36:53;3.40;;;3.20;;
1346;SDS011;667;48.796;9.480;2023-05-07T09:39:19;3.00;;;2.80;;
1346;SDS011;667;48.796;9.480;2023-05-07T09:41:45;3.33;;;3.03;;
1346;SDS011;667;48.796;9.480;2023-05-07T09:44:12;3.00;;;2.80;;
1346;SDS011;667;48.796;9.480;2023-05-07T09:46:39;3.60;;;3.27;;
1346;SDS011;667;48.796;9.480;2023-05-07T09:49:07;3.10;;;2.90;;
1346;SDS011;667;48.796;9.480;2023-05-07T09:51:45;3.40;;;3.10;;
1346;SDS011;667;48.796;9.480;2023-05-07T09:54:14;3.20;;;3.00;;
1346;SDS011;667;48.796;9.480;2023-05-07T09:56:40;3.13;;;2.90;;
1346;SDS011;667;48.796;9.480;2023-05-07T09:59:08;3.30;;;3.10;;
1346;SDS011;667;48.796;9.480;2023-05-07T10:01:38;3.10;;;2.90;;
1346;SDS011;667;48.796;9.480;2023-05-07T10:04:05;4.03;;;3.07;;
1346;SDS011;667;48.796;9.480;2023-05-07T10:06:33;3.53;;;2.97;;
1346;SDS011;667;48.796;9.480;2023-05-07T10:08:59;2.87;;;2.67;;
1346;SDS011;667;48.796;9.480;2023-05-07T10:11:25;4.40;;;3.00;;
1346;SDS011;667;48.796;9.480;2023-05-07T10:13:52;4.23;;;3.03;;
1346;SDS011;667;48.796;9.480;2023-05-07T10:16:18;3.10;;;2.90;;
1346;SDS011;667;48.796;9.480;2023-05-07T10:18:44;2.30;;;2.20;;
1346;SDS011;667;48.796;9.480;2023-05-07T10:21:11;3.57;;;2.63;;
1346;SDS011;667;48.796;9.480;2023-05-07T10:23:42;3.47;;;3.17;;
1346;SDS011;667;48.796;9.480;2023-05-07T10:26:20;3.00;;;2.80;;
1346;SDS011;667;48.796;9.480;2023-05-07T10:28:48;2.80;;;2.60;;
1346;SDS011;667;48.796;9.480;2023-05-07T10:32:19;3.90;;;3.00;;
1346;SDS011;667;48.796;9.480;2023-05-07T10:34:39;2.70;;;2.50;;
1346;SDS011;667;48.796;9.480;2023-05-07T10:37:08;3.67;;;3.10;;
1346;SDS011;667;48.796;9.480;2023-05-07T10:39:35;3.90;;;2.57;;
1346;SDS011;667;48.796;9.480;2023-05-07T10:42:08;3.50;;;2.83;;
1346;SDS011;667;48.796;9.480;2023-05-07T10:44:37;4.77;;;3.00;;
1346;SDS011;667;48.796;9.480;2023-05-07T10:47:10;4.90;;;2.67;;
1346;SDS011;667;48.796;9.480;2023-05-07T10:54:44;4.43;;;2.90;;
1346;SDS011;667;48.796;9.480;2023-05-07T10:59:56;3.37;;;3.07;;
1346;SDS011;667;48.796;9.480;2023-05-07T11:02:22;3.30;;;3.00;;
1346;SDS011;667;48.796;9.480;2023-05-07T11:07:53;3.27;;;2.70;;
1346;SDS011;667;48.796;9.480;2023-05-07T11:13:13;2.90;;;2.70;;
1346;SDS011;667;48.796;9.480;2023-05-07T11:15:48;3.00;;;2.80;;
1346;SDS011;667;48.796;9.480;2023-05-07T11:18:15;2.57;;;2.43;;
1346;SDS011;667;48.796;9.480;2023-05-07T11:26:02;3.20;;;2.90;;
1346;SDS011;667;48.796;9.480;2023-05-07T11:28:41;3.30;;;2.70;;
1346;SDS011;667;48.796;9.480;2023-05-07T11:31:08;2.90;;;2.70;;
1346;SDS011;667;48.796;9.480;2023-05-07T11:33:35;2.87;;;2.67;;
1346;SDS011;667;48.796;9.480;2023-05-07T11:36:04;2.83;;;2.50;;
1346;SDS011;667;48.796;9.480;2023-05-07T11:38:30;2.83;;;2.63;;
1346;SDS011;667;48.796;9.480;2023-05-07T11:41:00;2.70;;;2.47;;
1346;SDS011;667;48.796;9.480;2023-05-07T11:43:27;3.43;;;2.73;;
1346;SDS011;667;48.796;9.480;2023-05-07T11:45:53;3.13;;;2.83;;
1346;SDS011;667;48.796;9.480;2023-05-07T11:48:19;2.90;;;2.70;;
1346;SDS011;667;48.796;9.480;2023-05-07T11:50:53;2.93;;;2.73;;
1346;SDS011;667;48.796;9.480;2023-05-07T11:53:25;3.83;;;2.73;;
1346;SDS011;667;48.796;9.480;2023-05-07T11:55:55;2.43;;;2.33;;
1346;SDS011;667;48.796;9.480;2023-05-07T11:58:21;2.93;;;2.40;;
1346;SDS011;667;48.796;9.480;2023-05-07T12:00:52;2.40;;;2.17;;
1346;SDS011;667;48.796;9.480;2023-05-07T12:03:19;3.10;;;2.90;;
1346;SDS011;667;48.796;9.480;2023-05-07T12:05:45;2.53;;;2.33;;
1346;SDS011;667;48.796;9.480;2023-05-07T12:08:14;2.50;;;2.27;;
1346;SDS011;667;48.796;9.480;2023-05-07T12:10:44;3.00;;;2.80;;
1346;SDS011;667;48.796;9.480;2023-05-07T12:15:41;2.33;;;2.13;;
1346;SDS011;667;48.796;9.480;2023-05-07T12:18:08;2.93;;;2.73;;
1346;SDS011;667;48.796;9.480;2023-05-07T12:20:35;2.43;;;2.23;;
1346;SDS011;667;48.796;9.480;2023-05-07T12:23:01;3.00;;;2.70;;
1346;SDS011;667;48.796;9.480;2023-05-07T12:25:29;3.33;;;2.47;;
1346;SDS011;667;48.796;9.480;2023-05-07T12:27:56;2.40;;;2.20;;
1346;SDS011;667;48.796;9.480;2023-05-07T12:30:23;2.93;;;2.73;;
1346;SDS011;667;48.796;9.480;2023-05-07T12:32:52;3.43;;;2.70;;
1346;SDS011;667;48.796;9.480;2023-05-07T12:35:30;2.40;;;2.20;;
1346;SDS011;667;48.796;9.480;2023-05-07T12:37:57;2.80;;;2.47;;
1346;SDS011;667;48.796;9.480;2023-05-07T12:40:25;2.53;;;2.33;;
1346;SDS011;667;48.796;9.480;2023-05-07T12:43:03;2.77;;;2.20;;
1346;SDS011;667;48.796;9.480;2023-05-07T12:45:29;2.87;;;2.67;;
1346;SDS011;667;48.796;9.480;2023-05-07T12:47:55;2.70;;;2.50;;
1346;SDS011;667;48.796;9.480;2023-05-07T12:50:21;2.47;;;2.37;;
1346;SDS011;667;48.796;9.480;2023-05-07T12:52:47;3.10;;;2.77;;
1346;SDS011;667;48.796;9.480;2023-05-07T12:55:14;2.53;;;2.33;;
1346;SDS011;667;48.796;9.480;2023-05-07T12:58:00;3.73;;;2.87;;
1346;SDS011;667;48.796;9.480;2023-05-07T13:00:34;2.57;;;2.37;;
1346;SDS011;667;48.796;9.480;2023-05-07T13:03:03;2.80;;;2.60;;
1346;SDS011;667;48.796;9.480;2023-05-07T13:05:29;2.60;;;2.40;;
1346;SDS011;667;48.796;9.480;2023-05-07T13:07:56;3.20;;;2.77;;
1346;SDS011;667;48.796;9.480;2023-05-07T13:10:22;2.83;;;2.63;;
1346;SDS011;667;48.796;9.480;2023-05-07T13:12:49;2.93;;;2.63;;
1346;SDS011;667;48.796;9.480;2023-05-07T13:15:15;2.90;;;2.70;;
1346;SDS011;667;48.796;9.480;2023-05-07T13:17:41;3.47;;;2.40;;
1346;SDS011;667;48.796;9.480;2023-05-07T13:20:06;2.83;;;2.53;;
1346;SDS011;667;48.796;9.480;2023-05-07T13:22:34;2.10;;;2.00;;
1346;SDS011;667;48.796;9.480;2023-05-07T13:24:59;3.30;;;1.93;;
1346;SDS011;667;48.796;9.480;2023-05-07T13:27:25;2.70;;;2.50;;
1346;SDS011;667;48.796;9.480;2023-05-07T13:29:51;2.83;;;2.43;;
1346;SDS011;667;48.796;9.480;2023-05-07T13:32:16;2.30;;;2.20;;
1346;SDS011;667;48.796;9.480;2023-05-07T13:34:42;3.30;;;3.10;;
1346;SDS011;667;48.796;9.480;2023-05-07T13:37:08;4.47;;;3.17;;
1346;SDS011;667;48.796;9.480;2023-05-07T13:39:33;4.13;;;3.10;;
1346;SDS011;667;48.796;9.480;2023-05-07T13:41:59;6.10;;;2.60;;
1346;SDS011;667;48.796;9.480;2023-05-07T13:44:24;2.70;;;2.50;;
1346;SDS011;667;48.796;9.480;2023-05-07T13:46:50;2.80;;;2.60;;
1346;SDS011;667;48.796;9.480;2023-05-07T13:49:16;2.63;;;2.43;;
1346;SDS011;667;48.796;9.480;2023-05-07T13:51:42;2.33;;;2.13;;
1346;SDS011;667;48.796;9.480;2023-05-07T13:54:07;2.53;;;2.33;;
1346;SDS011;667;48.796;9.480;2023-05-07T13:56:33;2.83;;;2.63;;
1346;SDS011;667;48.796;9.480;2023-05-07T13:58:58;3.17;;;2.87;;
1346;SDS011;667;48.796;9.480;2023-05-07T14:01:24;3.20;;;2.63;;
1346;SDS011;667;48.796;9.480;2023-05-07T14:03:50;3.43;;;3.13;;
1346;SDS011;667;48.796;9.480;2023-05-07T14:06:15;3.10;;;2.80;;
1346;SDS011;667;48.796;9.480;2023-05-07T14:08:41;3.00;;;2.73;;
1346;SDS011;667;48.796;9.480;2023-05-07T14:11:06;2.83;;;2.63;;
1346;SDS011;667;48.796;9.480;2023-05-07T14:13:32;2.70;;;2.50;;
1346;SDS011;667;48.796;9.480;2023-05-07T14:15:59;2.50;;;2.30;;
1346;SDS011;667;48.796;9.480;2023-05-07T14:18:25;4.03;;;2.57;;
1346;SDS011;667;48.796;9.480;2023-05-07T14:20:51;3.50;;;2.70;;
1346;SDS011;667;48.796;9.480;2023-05-07T14:23:16;4.70;;;2.70;;
1346;SDS011;667;48.796;9.480;2023-05-07T14:25:44;10.10;;;7.13;;
1346;SDS011;667;48.796;9.480;2023-05-07T14:28:11;4.90;;;3.33;;
1346;SDS011;667;48.796;9.480;2023-05-07T14:30:36;3.07;;;2.77;;
1346;SDS011;667;48.796;9.480;2023-05-07T14:33:02;2.30;;;2.20;;
1346;SDS011;667;48.796;9.480;2023-05-07T14:35:27;2.60;;;2.40;;
1346;SDS011;667;48.796;9.480;2023-05-07T14:37:55;1.73;;;1.63;;
1346;SDS011;667;48.796;9.480;2023-05-07T14:40:21;1.60;;;1.50;;
1346;SDS011;667;48.796;9.480;2023-05-07T14:42:46;2.67;;;1.73;;
1346;SDS011;667;48.796;9.480;2023-05-07T14:45:12;2.00;;;1.80;;
1346;SDS011;667;48.796;9.480;2023-05-07T14:47:37;2.20;;;2.00;;
1346;SDS011;667;48.796;9.480;2023-05-07T14:50:03;2.53;;;2.33;;
1346;SDS011;667;48.796;9.480;2023-05-07T14:52:29;1.80;;;1.70;;
1346;SDS011;667;48.796;9.480;2023-05-07T14:54:55;2.90;;;1.90;;
1346;SDS011;667;48.796;9.480;2023-05-07T14:57:20;2.27;;;1.90;;
1346;SDS011;667;48.796;9.480;2023-05-07T15:02:17;3.20;;;1.70;;
1346;SDS011;667;48.796;9.480;2023-05-07T15:04:43;3.10;;;1.87;;
1346;SDS011;667;48.796;9.480;2023-05-07T15:07:12;1.97;;;1.77;;
1346;SDS011;667;48.796;9.480;2023-05-07T15:09:41;1.97;;;1.53;;
1346;SDS011;667;48.796;9.480;2023-05-07T15:12:07;1.77;;;1.67;;
1346;SDS011;667;48.796;9.480;2023-05-07T15:14:33;2.10;;;1.70;;
1346;SDS011;667;48.796;9.480;2023-05-07T15:16:59;2.10;;;1.90;;
1346;SDS011;667;48.796;9.480;2023-05-07T15:19:25;1.80;;;1.70;;
1346;SDS011;667;48.796;9.480;2023-05-07T15:21:54;2.40;;;1.93;;
1346;SDS011;667;48.796;9.480;2023-05-07T15:24:21;1.77;;;1.67;;
1346;SDS011;667;48.796;9.480;2023-05-07T15:26:47;2.27;;;2.10;;
1346;SDS011;667;48.796;9.480;2023-05-07T15:29:13;2.63;;;1.63;;
1346;SDS011;667;48.796;9.480;2023-05-07T15:31:38;2.03;;;1.93;;
1346;SDS011;667;48.796;9.480;2023-05-07T15:34:04;2.13;;;2.03;;
1346;SDS011;667;48.796;9.480;2023-05-07T15:36:30;2.83;;;2.33;;
1346;SDS011;667;48.796;9.480;2023-05-07T15:38:56;2.30;;;1.97;;
1346;SDS011;667;48.796;9.480;2023-05-07T15:41:22;3.67;;;2.50;;
1346;SDS011;667;48.796;9.480;2023-05-07T15:43:49;2.90;;;2.70;;
1346;SDS011;667;48.796;9.480;2023-05-07T15:46:20;3.13;;;2.33;;
1346;SDS011;667;48.796;9.480;2023-05-07T15:48:49;3.80;;;2.50;;
1346;SDS011;667;48.796;9.480;2023-05-07T15:51:15;3.63;;;2.43;;